createdAt,value
2022-10-05T00:01:58.432Z,100276.69
2022-10-05T00:04:29.319Z,100268.63
2022-10-05T00:07:00.480Z,100258.84
2022-10-05T00:09:32.934Z,100264.22
2022-10-05T00:12:01.076Z,100263.41
2022-10-05T00:14:34.616Z,100269.63
2022-10-05T00:17:03.359Z,100277.00
2022-10-05T00:19:35.213Z,100267.94
2022-10-05T00:22:11.897Z,100272.47
2022-10-05T00:24:41.439Z,100257.19
2022-10-05T00:27:22.283Z,100252.66
2022-10-05T00:29:52.896Z,100235.69
2022-10-05T00:32:21.342Z,100246.44
2022-10-05T00:34:49.400Z,100250.97
2022-10-05T00:37:17.615Z,100245.59
2022-10-05T00:39:48.110Z,100243.75
2022-10-05T00:42:32.707Z,100234.00
2022-10-05T00:45:05.965Z,100235.69
2022-10-05T00:47:42.087Z,100232.31
2022-10-05T00:50:37.191Z,100221.22
2022-10-05T00:53:14.316Z,100224.94
2022-10-05T00:55:55.277Z,100235.69
2022-10-05T00:58:33.869Z,100224.94
2022-10-05T01:01:11.150Z,100217.72
2022-10-05T01:03:51.180Z,100208.81
2022-10-05T01:06:25.931Z,100202.59
2022-10-05T01:09:04.212Z,100196.38
2022-10-05T01:11:39.918Z,100197.22
2022-10-05T01:14:17.949Z,100205.09
2022-10-05T01:16:53.301Z,100196.38
2022-10-05T01:19:40.105Z,100188.97
2022-10-05T01:22:21.615Z,100192.69
2022-10-05T01:25:04.334Z,100203.44
2022-10-05T01:27:55.953Z,100188.31
2022-10-05T01:30:24.788Z,100184.78
2022-10-05T01:33:00.334Z,100192.69
2022-10-05T01:35:44.471Z,100196.38
2022-10-05T01:38:37.400Z,100192.69
2022-10-05T01:41:16.581Z,100178.88
2022-10-05T01:43:49.492Z,100190.16
2022-10-05T01:46:28.958Z,100178.56
2022-10-05T01:49:13.166Z,100177.56
2022-10-05T01:51:49.443Z,100177.56
2022-10-05T01:54:43.688Z,100167.00
2022-10-05T01:57:24.022Z,100174.88
2022-10-05T02:00:07.715Z,100169.50
2022-10-05T02:02:39.994Z,100180.25
2022-10-05T02:05:14.457Z,100178.56
2022-10-05T02:07:47.941Z,100172.38
2022-10-05T02:10:23.806Z,100178.56
2022-10-05T02:12:57.348Z,100164.47
2022-10-05T02:15:33.328Z,100162.44
2022-10-05T02:18:11.903Z,100174.88
2022-10-05T02:20:43.712Z,100174.88
2022-10-05T02:23:15.745Z,100166.81
2022-10-05T02:25:49.074Z,100166.81
2022-10-05T02:28:21.683Z,100164.13
2022-10-05T02:30:56.381Z,100164.13
2022-10-05T02:33:29.689Z,100169.50
2022-10-05T02:36:02.934Z,100153.38
2022-10-05T02:38:38.548Z,100157.06
2022-10-05T02:41:15.887Z,100158.75
2022-10-05T02:43:55.327Z,100153.38
2022-10-05T02:46:34.074Z,100151.69
2022-10-05T02:49:13.845Z,100154.38
2022-10-05T02:51:50.184Z,100148.34
2022-10-05T02:54:32.644Z,100146.31
2022-10-05T02:57:06.899Z,100153.38
2022-10-05T02:59:40.158Z,100134.22
2022-10-05T03:02:16.289Z,100149.00
2022-10-05T03:04:55.101Z,100128.19
2022-10-05T03:07:31.516Z,100129.84
2022-10-05T03:10:04.155Z,100139.78
2022-10-05T03:12:44.195Z,100128.19
2022-10-05T03:15:31.637Z,100119.28
2022-10-05T03:18:11.655Z,100110.38
2022-10-05T03:20:48.541Z,100117.44
2022-10-05T03:23:26.775Z,100098.09
2022-10-05T03:26:19.497Z,100099.63
2022-10-05T03:28:56.686Z,100099.63
2022-10-05T03:31:32.353Z,100094.25
2022-10-05T03:34:10.222Z,100090.56
2022-10-05T03:36:49.266Z,100101.31
2022-10-05T03:39:23.560Z,100096.25
2022-10-05T03:41:59.438Z,100098.78
2022-10-05T03:44:44.576Z,100099.63
2022-10-05T03:47:27.207Z,100108.69
2022-10-05T03:50:14.530Z,100103.31
2022-10-05T03:52:47.443Z,100097.94
2022-10-05T03:55:21.715Z,100101.63
2022-10-05T03:57:52.421Z,100096.25
2022-10-05T04:00:23.272Z,100081.16
2022-10-05T04:02:59.324Z,100083.69
2022-10-05T04:05:31.938Z,100084.50
2022-10-05T04:08:05.242Z,100080.16
2022-10-05T04:10:43.237Z,100078.16
2022-10-05T04:13:16.744Z,100078.16
2022-10-05T04:15:52.850Z,100072.75
2022-10-05T04:18:27.621Z,100071.06
2022-10-05T04:21:02.188Z,100069.06
2022-10-05T04:23:40.942Z,100075.63
2022-10-05T04:26:15.292Z,100072.75
2022-10-05T04:28:53.500Z,100077.44
2022-10-05T04:31:38.461Z,100076.44
2022-10-05T04:34:17.476Z,100070.56
2022-10-05T04:36:54.535Z,100040.81
2022-10-05T04:39:31.319Z,100076.44
2022-10-05T04:42:11.828Z,100072.75
2022-10-05T04:44:59.677Z,100067.38
2022-10-05T04:47:47.104Z,100072.75
2022-10-05T04:50:24.829Z,100041.84
2022-10-05T04:53:03.256Z,100060.31
2022-10-05T04:55:37.632Z,100055.63
2022-10-05T04:58:20.489Z,100053.94
2022-10-05T05:00:59.840Z,100052.25
2022-10-05T05:03:47.162Z,100050.41
2022-10-05T05:06:35.822Z,100062.00
2022-10-05T05:09:24.284Z,100067.88
2022-10-05T05:12:10.697Z,100055.97
2022-10-05T05:15:08.574Z,100061.03
2022-10-05T05:17:54.900Z,100059.00
2022-10-05T05:20:33.883Z,100059.00
2022-10-05T05:23:11.553Z,99979.97
2022-10-05T05:25:51.699Z,100043.56
2022-10-05T05:28:31.610Z,100050.59
2022-10-05T05:31:07.841Z,100056.66
2022-10-05T05:33:47.943Z,100052.31
2022-10-05T05:36:38.395Z,100060.03
2022-10-05T05:39:29.091Z,100050.97
2022-10-05T05:42:12.088Z,100053.47
2022-10-05T05:44:46.549Z,100048.09
2022-10-05T05:47:20.946Z,100045.25
2022-10-05T05:50:06.554Z,100046.91
2022-10-05T05:52:40.583Z,100043.41
2022-10-05T05:55:18.498Z,100047.78
2022-10-05T05:57:54.483Z,100050.28
2022-10-05T06:00:25.636Z,100043.25
2022-10-05T06:03:01.956Z,100045.75
2022-10-05T06:05:33.611Z,100046.59
2022-10-05T06:08:18.037Z,100041.22
2022-10-05T06:10:51.071Z,100054.66
2022-10-05T06:13:25.737Z,100042.91
2022-10-05T06:15:58.312Z,100044.59
2022-10-05T06:18:27.203Z,100040.03
2022-10-05T06:21:02.987Z,100035.50
2022-10-05T06:23:39.682Z,100020.03
2022-10-05T06:26:35.324Z,100035.50
2022-10-05T06:29:10.317Z,100030.13
2022-10-05T06:31:58.899Z,100034.47
2022-10-05T06:34:46.159Z,100037.16
2022-10-05T06:37:21.496Z,100040.88
2022-10-05T06:40:05.005Z,100044.59
2022-10-05T06:42:52.557Z,100037.53
2022-10-05T06:45:32.181Z,100039.19
2022-10-05T06:48:08.692Z,100036.34
2022-10-05T06:50:39.990Z,100036.19
2022-10-05T06:53:21.334Z,100035.31
2022-10-05T06:55:57.736Z,100026.41
2022-10-05T06:58:41.532Z,100029.78
2022-10-05T07:01:17.178Z,100028.13
2022-10-05T07:03:59.625Z,100028.13
2022-10-05T07:06:35.946Z,100030.81
2022-10-05T07:09:32.069Z,100019.03
2022-10-05T07:12:18.135Z,100029.78
2022-10-05T07:14:59.592Z,100012.81
2022-10-05T07:17:44.967Z,100011.97
2022-10-05T07:20:20.463Z,100013.66
2022-10-05T07:23:05.020Z,100012.81
2022-10-05T07:25:38.441Z,100003.22
2022-10-05T07:28:09.759Z,100026.06
2022-10-05T07:30:48.733Z,100027.94
2022-10-05T07:33:25.266Z,100020.69
2022-10-05T07:36:18.836Z,100021.03
2022-10-05T07:38:54.064Z,100020.69
2022-10-05T07:41:32.820Z,100024.06
2022-10-05T07:44:13.475Z,100020.69
2022-10-05T07:46:54.781Z,100018.69
2022-10-05T07:49:37.825Z,100025.75
2022-10-05T07:52:12.138Z,100020.38
2022-10-05T07:54:48.793Z,100030.78
2022-10-05T07:57:25.831Z,100030.78
2022-10-05T08:00:01.277Z,100026.44
2022-10-05T08:02:36.634Z,100023.75
2022-10-05T08:05:14.522Z,100025.41
2022-10-05T08:07:43.046Z,99993.31
2022-10-05T08:10:27.177Z,100026.25
2022-10-05T08:13:08.557Z,100028.78
2022-10-05T08:15:42.904Z,100010.13
2022-10-05T08:18:18.468Z,100010.13
2022-10-05T08:20:49.438Z,100007.59
2022-10-05T08:23:23.668Z,99982.06
2022-10-05T08:26:03.923Z,100003.06
2022-10-05T08:28:37.140Z,100009.28
2022-10-05T08:31:16.072Z,100011.78
2022-10-05T08:33:54.595Z,100004.75
2022-10-05T08:36:33.078Z,100001.88
2022-10-05T08:39:08.690Z,100004.56
2022-10-05T08:42:23.376Z,99992.81
2022-10-05T08:45:33.048Z,99999.38
2022-10-05T08:48:26.914Z,99994.16
2022-10-05T08:51:33.290Z,99982.38
2022-10-05T08:54:30.348Z,99993.13
2022-10-05T08:57:18.082Z,99943.75
2022-10-05T09:00:06.414Z,99978.88
2022-10-05T09:02:58.809Z,99979.88
2022-10-05T09:05:44.905Z,99966.25
2022-10-05T09:08:48.357Z,99968.94
2022-10-05T09:11:26.313Z,99974.31
2022-10-05T09:14:07.545Z,99960.69
2022-10-05T09:17:11.720Z,99964.25
2022-10-05T09:20:18.860Z,99974.31
2022-10-05T09:23:11.177Z,99961.22
2022-10-05T09:25:58.997Z,99977.00
2022-10-05T09:28:35.538Z,99953.16
2022-10-05T09:31:26.440Z,99977.34
2022-10-05T09:34:41.943Z,99981.91
2022-10-05T09:37:33.413Z,99975.00
2022-10-05T09:40:48.767Z,99965.25
2022-10-05T09:43:35.225Z,99964.56
2022-10-05T09:46:54.055Z,99960.22
2022-10-05T09:49:51.157Z,99947.28
2022-10-05T09:52:50.041Z,99952.81
2022-10-05T09:55:48.084Z,99952.66
2022-10-05T09:58:53.653Z,99952.66
2022-10-05T10:01:37.296Z,99955.50
2022-10-05T10:04:30.419Z,99954.69
2022-10-05T10:07:37.675Z,99948.47
2022-10-05T10:10:31.648Z,99944.63
2022-10-05T10:13:25.399Z,99957.56
2022-10-05T10:16:19.375Z,99941.44
2022-10-05T10:19:13.776Z,99966.59
2022-10-05T10:22:10.501Z,99952.34
2022-10-05T10:25:00.338Z,99948.81
2022-10-05T10:27:52.333Z,99942.75
2022-10-05T10:30:47.912Z,99940.91
2022-10-05T10:33:56.049Z,99942.75
2022-10-05T10:36:44.234Z,99934.69
2022-10-05T10:39:19.993Z,99949.13
2022-10-05T10:42:06.839Z,99938.38
2022-10-05T10:45:11.675Z,99932.69
2022-10-05T10:47:51.653Z,99933.34
2022-10-05T10:50:58.023Z,99931.31
2022-10-05T10:54:02.653Z,99934.00
2022-10-05T10:56:48.894Z,99946.47
2022-10-05T11:00:04.980Z,99946.13
2022-10-05T11:03:06.311Z,99932.69
2022-10-05T11:05:59.598Z,99930.00
2022-10-05T11:08:54.913Z,99923.59
2022-10-05T11:12:01.659Z,99927.31
2022-10-05T11:15:02.639Z,99935.16
2022-10-05T11:17:54.305Z,99939.72
2022-10-05T11:20:43.370Z,99929.78
2022-10-05T11:23:38.626Z,99930.13
2022-10-05T11:26:42.714Z,99932.66
2022-10-05T11:29:48.694Z,99927.28
2022-10-05T11:32:49.962Z,99911.16
2022-10-05T11:35:44.940Z,99918.53
2022-10-05T11:38:32.534Z,99933.50
2022-10-05T11:41:28.286Z,99905.75
2022-10-05T11:44:38.466Z,99926.94
2022-10-05T11:47:16.454Z,99910.81
2022-10-05T11:49:49.927Z,99912.47
2022-10-05T11:52:23.847Z,99917.84
2022-10-05T11:55:22.693Z,99922.25
2022-10-05T11:57:55.139Z,99908.78
2022-10-05T12:00:26.009Z,99901.06
2022-10-05T12:03:18.745Z,99898.03
2022-10-05T12:06:04.760Z,99893.47
2022-10-05T12:08:45.408Z,99899.69
2022-10-05T12:11:33.175Z,99891.47
2022-10-05T12:14:06.709Z,99901.38
2022-10-05T12:16:43.040Z,99896.00
2022-10-05T12:19:17.749Z,99890.13
2022-10-05T12:21:51.273Z,99910.47
2022-10-05T12:24:26.979Z,99898.69
2022-10-05T12:27:01.014Z,99890.63
2022-10-05T12:29:36.808Z,99899.38
2022-10-05T12:32:14.740Z,99881.38
2022-10-05T12:35:01.077Z,99886.59
2022-10-05T12:37:42.457Z,99890.28
2022-10-05T12:40:22.098Z,99881.56
2022-10-05T12:43:03.130Z,99870.47
2022-10-05T12:45:46.254Z,99871.63
2022-10-05T12:48:52.549Z,99867.44
2022-10-05T12:51:31.941Z,99879.03
2022-10-05T12:54:10.544Z,99864.06
2022-10-05T12:56:45.741Z,99868.28
2022-10-05T12:59:25.304Z,99876.19
2022-10-05T13:02:02.269Z,99867.09
2022-10-05T13:04:40.973Z,99856.69
2022-10-05T13:07:29.424Z,99869.78
2022-10-05T13:10:04.261Z,99868.75
2022-10-05T13:12:48.021Z,99852.63
2022-10-05T13:15:24.362Z,99857.00
2022-10-05T13:18:03.415Z,99848.94
2022-10-05T13:20:39.641Z,99847.59
2022-10-05T13:23:15.782Z,99853.47
2022-10-05T13:25:52.235Z,99859.69
2022-10-05T13:28:24.830Z,99848.94
2022-10-05T13:31:04.074Z,99841.22
2022-10-05T13:33:54.817Z,99841.88
2022-10-05T13:36:31.465Z,99840.19
2022-10-05T13:39:09.696Z,99827.44
2022-10-05T13:41:47.128Z,99821.38
2022-10-05T13:44:22.743Z,99828.25
2022-10-05T13:46:56.973Z,99799.25
2022-10-05T13:49:29.450Z,99830.13
2022-10-05T13:52:07.344Z,99823.72
2022-10-05T13:54:47.276Z,99817.50
2022-10-05T13:57:25.583Z,99832.81
2022-10-05T13:59:57.955Z,99812.47
2022-10-05T14:02:31.669Z,99818.34
2022-10-05T14:05:01.738Z,99816.69
2022-10-05T14:07:35.060Z,99823.72
2022-10-05T14:10:12.662Z,99818.69
2022-10-05T14:12:43.321Z,99820.34
2022-10-05T14:15:22.634Z,99793.69
2022-10-05T14:17:52.838Z,99813.31
2022-10-05T14:20:24.978Z,99814.97
2022-10-05T14:22:57.758Z,99802.22
2022-10-05T14:25:28.723Z,99801.19
2022-10-05T14:28:03.404Z,99803.88
2022-10-05T14:30:35.114Z,99805.56
2022-10-05T14:33:17.444Z,99794.31
2022-10-05T14:35:49.314Z,99795.16
2022-10-05T14:38:21.705Z,99779.72
2022-10-05T14:41:13.468Z,99774.63
2022-10-05T14:43:51.726Z,99784.41
2022-10-05T14:46:27.932Z,99782.72
2022-10-05T14:49:18.257Z,99782.72
2022-10-05T14:51:46.349Z,99754.69
2022-10-05T14:54:37.115Z,99777.34
2022-10-05T14:57:17.346Z,99774.81
2022-10-05T15:00:11.473Z,99764.91
2022-10-05T15:02:59.323Z,99769.63
2022-10-05T15:05:32.820Z,99774.81
2022-10-05T15:08:15.072Z,99756.16
2022-10-05T15:10:50.329Z,99765.75
2022-10-05T15:13:23.083Z,99711.91
2022-10-05T15:15:54.809Z,99751.28
2022-10-05T15:18:39.633Z,99745.06
2022-10-05T15:21:26.630Z,99736.81
2022-10-05T15:23:58.635Z,99743.03
2022-10-05T15:26:40.308Z,99745.41
2022-10-05T15:29:35.230Z,99757.53
2022-10-05T15:32:14.865Z,99745.06
2022-10-05T15:34:50.624Z,99754.81
2022-10-05T15:37:27.104Z,99733.31
2022-10-05T15:39:59.266Z,99733.31
2022-10-05T15:42:36.504Z,99738.50
2022-10-05T15:45:16.839Z,99723.91
2022-10-05T15:47:54.344Z,99695.78
2022-10-05T15:50:27.123Z,99728.75
2022-10-05T15:53:02.302Z,99743.91
2022-10-05T15:55:46.777Z,99750.09
2022-10-05T15:58:32.322Z,99723.25
2022-10-05T16:01:06.713Z,99739.69
2022-10-05T16:03:45.474Z,99730.63
2022-10-05T16:06:42.785Z,99739.22
2022-10-05T16:09:24.601Z,99745.91
2022-10-05T16:12:07.440Z,99740.53
2022-10-05T16:14:54.654Z,99729.28
2022-10-05T16:17:36.493Z,99693.53
2022-10-05T16:20:19.760Z,99725.06
2022-10-05T16:22:59.834Z,99710.78
2022-10-05T16:25:35.440Z,99720.69
2022-10-05T16:28:13.035Z,99716.50
2022-10-05T16:30:59.770Z,99712.78
2022-10-05T16:33:46.589Z,99706.09
2022-10-05T16:36:31.925Z,99716.19
2022-10-05T16:39:08.366Z,99693.78
2022-10-05T16:41:48.637Z,99705.13
2022-10-05T16:44:29.218Z,99724.25
2022-10-05T16:47:02.532Z,99710.50
2022-10-05T16:49:42.254Z,99702.28
2022-10-05T16:52:18.326Z,99721.28
2022-10-05T16:54:50.158Z,99717.56
2022-10-05T16:57:23.493Z,99715.91
2022-10-05T17:00:13.472Z,99688.75
2022-10-05T17:03:12.584Z,99721.09
2022-10-05T17:06:25.609Z,99712.53
2022-10-05T17:09:20.972Z,99704.53
2022-10-05T17:12:06.662Z,99698.41
2022-10-05T17:14:57.797Z,99707.50
2022-10-05T17:17:39.071Z,99698.81
2022-10-05T17:20:26.889Z,99700.13
2022-10-05T17:23:03.289Z,99689.72
2022-10-05T17:25:44.783Z,99703.44
2022-10-05T17:28:23.433Z,99706.81
2022-10-05T17:31:10.418Z,99699.41
2022-10-05T17:34:11.730Z,99696.06
2022-10-05T17:36:47.820Z,99691.69
2022-10-05T17:39:20.095Z,99704.28
2022-10-05T17:41:50.144Z,99699.75
2022-10-05T17:44:21.779Z,99688.41
2022-10-05T17:46:52.355Z,99688.50
2022-10-05T17:49:24.665Z,99696.53
2022-10-05T17:52:19.325Z,99686.16
2022-10-05T17:55:30.778Z,99680.88
2022-10-05T17:58:43.294Z,99686.25
2022-10-05T18:01:20.355Z,99668.47
2022-10-05T18:03:51.509Z,99679.72
2022-10-05T18:06:44.742Z,99660.22
2022-10-05T18:09:35.035Z,99676.84
2022-10-05T18:12:15.441Z,99678.50
2022-10-05T18:15:00.104Z,99679.34
2022-10-05T18:17:41.255Z,99643.91
2022-10-05T18:20:30.189Z,99653.28
2022-10-05T18:23:35.583Z,99636.91
2022-10-05T18:26:13.896Z,99663.69
2022-10-05T18:28:56.382Z,99657.50
2022-10-05T18:31:40.154Z,99651.94
2022-10-05T18:34:28.666Z,99656.28
2022-10-05T18:37:10.781Z,99634.78
2022-10-05T18:40:14.411Z,99642.66
2022-10-05T18:42:54.133Z,99643.88
2022-10-05T18:45:29.084Z,99641.81
2022-10-05T18:48:18.336Z,99643.53
2022-10-05T18:50:55.113Z,99641.81
2022-10-05T18:53:31.214Z,99635.13
2022-10-05T18:56:08.088Z,99644.34
2022-10-05T18:58:55.914Z,99640.84
2022-10-05T19:01:55.975Z,99652.28
2022-10-05T19:04:33.307Z,99649.94
2022-10-05T19:07:17.454Z,99646.25
2022-10-05T19:10:12.580Z,99645.34
2022-10-05T19:12:57.990Z,99635.41
2022-10-05T19:15:32.453Z,99628.34
2022-10-05T19:18:30.160Z,99625.31
2022-10-05T19:21:11.614Z,99640.78
2022-10-05T19:23:54.556Z,99631.88
2022-10-05T19:26:41.854Z,99622.47
2022-10-05T19:29:24.232Z,99629.56
2022-10-05T19:31:57.807Z,99624.19
2022-10-05T19:34:44.181Z,99637.81
2022-10-05T19:37:20.962Z,99629.91
2022-10-05T19:39:56.029Z,99626.38
2022-10-05T19:42:47.267Z,99620.28
2022-10-05T19:45:23.991Z,99589.53
2022-10-05T19:48:10.683Z,99624.00
2022-10-05T19:50:41.040Z,99609.91
2022-10-05T19:53:17.287Z,99610.59
2022-10-05T19:55:47.209Z,99613.25
2022-10-05T19:58:20.866Z,99616.97
2022-10-05T20:00:59.792Z,99610.25
2022-10-05T20:03:29.548Z,99617.31
2022-10-05T20:06:02.356Z,99617.50
2022-10-05T20:08:41.947Z,99620.38
2022-10-05T20:11:14.819Z,99605.72
2022-10-05T20:13:46.277Z,99586.06
2022-10-05T20:16:45.650Z,99615.63
2022-10-05T20:19:56.584Z,99583.72
2022-10-05T20:22:33.003Z,99593.84
2022-10-05T20:25:08.540Z,99582.41
2022-10-05T20:27:49.158Z,99595.19
2022-10-05T20:30:19.103Z,99586.13
2022-10-05T20:32:48.948Z,99596.88
2022-10-05T20:35:22.468Z,99573.69
2022-10-05T20:37:52.625Z,99580.94
2022-10-05T20:40:23.553Z,99577.41
2022-10-05T20:42:51.744Z,99562.13
2022-10-05T20:45:21.306Z,99549.22
2022-10-05T20:47:51.176Z,99561.25
2022-10-05T20:50:21.134Z,99556.91
2022-10-05T20:52:49.366Z,99563.28
2022-10-05T20:55:21.934Z,99552.53
2022-10-05T20:57:50.032Z,99554.59
2022-10-05T21:00:18.234Z,99549.22
2022-10-05T21:02:46.917Z,99542.13
2022-10-05T21:05:15.600Z,99543.34
2022-10-05T21:07:43.711Z,99541.13
2022-10-05T21:10:13.017Z,99541.13
2022-10-05T21:12:42.481Z,99542.13
2022-10-05T21:15:11.020Z,99536.75
2022-10-05T21:17:39.229Z,99545.84
2022-10-05T21:20:12.136Z,99518.97
2022-10-05T21:22:43.158Z,99484.50
2022-10-05T21:25:11.331Z,99518.97
2022-10-05T21:27:39.766Z,99512.75
2022-10-05T21:30:11.873Z,99513.59
2022-10-05T21:32:44.157Z,99504.84
2022-10-05T21:35:12.699Z,99499.47
2022-10-05T21:37:40.805Z,99505.69
2022-10-05T21:40:09.548Z,99499.31
2022-10-05T21:42:37.719Z,99493.75
2022-10-05T21:45:06.695Z,99490.06
2022-10-05T21:47:36.366Z,99483.00
2022-10-05T21:50:05.381Z,99468.91
2022-10-05T21:52:34.891Z,99499.47
2022-10-05T21:55:03.565Z,99479.19
2022-10-05T21:57:31.786Z,99485.03
2022-10-05T21:59:59.926Z,99477.97
2022-10-05T22:02:28.053Z,99489.94
2022-10-05T22:04:58.232Z,99490.78
2022-10-05T22:07:26.366Z,99496.16
2022-10-05T22:09:54.800Z,99494.50
2022-10-05T22:12:24.496Z,99484.19
2022-10-05T22:14:52.605Z,99469.91
2022-10-05T22:17:27.425Z,99486.88
2022-10-05T22:19:57.734Z,99483.34
2022-10-05T22:22:26.250Z,99486.72
2022-10-05T22:24:55.087Z,99484.38
2022-10-05T22:27:24.241Z,99503.00
2022-10-05T22:29:53.212Z,99497.81
2022-10-05T22:32:21.515Z,99489.56
2022-10-05T22:34:49.574Z,99481.69
2022-10-05T22:37:19.078Z,99482.53
2022-10-05T22:39:48.197Z,99497.81
2022-10-05T22:42:16.481Z,99506.56
2022-10-05T22:44:44.598Z,99504.03
2022-10-05T22:47:12.736Z,99510.22
2022-10-05T22:49:40.829Z,99511.09
2022-10-05T22:52:08.965Z,99481.47
2022-10-05T22:54:38.464Z,99497.81
2022-10-05T22:57:06.565Z,99499.47
2022-10-05T22:59:34.665Z,99517.66
2022-10-05T23:02:03.371Z,99513.09
2022-10-05T23:04:31.543Z,99525.72
2022-10-05T23:06:59.589Z,99532.13
2022-10-05T23:09:27.857Z,99537.50
2022-10-05T23:11:58.193Z,99542.75
2022-10-05T23:14:30.893Z,99559.00
2022-10-05T23:16:59.042Z,99564.75
2022-10-05T23:19:27.260Z,99577.16
2022-10-05T23:21:55.324Z,99589.56
2022-10-05T23:24:23.376Z,99582.53
2022-10-05T23:26:51.458Z,99577.50
2022-10-05T23:29:20.951Z,99592.44
2022-10-05T23:31:49.114Z,99591.63
2022-10-05T23:34:17.325Z,99590.78
2022-10-05T23:36:45.418Z,99597.00
2022-10-05T23:39:13.867Z,99592.44
2022-10-05T23:41:44.220Z,99597.00
2022-10-05T23:44:12.516Z,99604.41
2022-10-05T23:46:41.991Z,99613.13
2022-10-05T23:49:10.132Z,99615.16
2022-10-05T23:51:38.209Z,99616.16
2022-10-05T23:54:06.508Z,99622.53
2022-10-05T23:56:34.805Z,99621.53
2022-10-05T23:59:03.191Z,99618.84
